Time;durP1;ratioP1;P1;durP2;ratioP2;P2;SDS_P1;SDS_P2;PMS_P1;PMS_P2;Temp;Humidity;BMP_temperature;BMP_pressure;BME280_temperature;BME280_humidity;BME280_pressure;Samples;Min_cycle;Max_cycle;Signal;HPM_P1;HPM_P2
2021/09/27 00:02:25;;;;;;;;;5.00;5.00;;;;;;;;4992709;28;45407;-70
2021/09/27 00:04:50;;;;;;;;;7.50;7.00;;;;;;;;4992848;28;45301;-69
2021/09/27 00:07:15;;;;;;;;;4.25;4.25;;;;;;;;4994927;28;47297;-70
2021/09/27 00:09:40;;;;;;;;;6.00;6.00;;;;;;;;4992479;28;45284;-70
2021/09/27 00:12:07;;;;;;;;;9.50;9.00;;;;;;;;4992862;28;45359;-71
2021/09/27 00:14:33;;;;;;;;;5.50;4.75;;;;;;;;4992808;28;45478;-70
2021/09/27 00:16:58;;;;;;;;;6.00;6.00;;;;;;;;4992521;28;45842;-71
2021/09/27 00:19:24;;;;;;;;;8.00;8.00;;;;;;;;4994131;28;45421;-70
2021/09/27 00:21:50;;;;;;;;;6.00;6.00;;;;;;;;4993449;28;45675;-70
2021/09/27 00:24:15;;;;;;;;;7.50;6.25;;;;;;;;4990303;28;45522;-72
2021/09/27 00:26:40;;;;;;;;;7.00;5.75;;;;;;;;4973578;28;48129;-70
2021/09/27 00:29:05;;;;;;;;;10.00;8.75;;;;;;;;4992425;28;45484;-70
2021/09/27 00:31:31;;;;;;;;;6.50;5.25;;;;;;;;4993368;28;45558;-71
2021/09/27 00:33:56;;;;;;;;;6.50;6.50;;;;;;;;4994529;28;45414;-70
2021/09/27 00:36:21;;;;;;;;;6.00;6.00;;;;;;;;4992562;28;45485;-71
2021/09/27 00:38:47;;;;;;;;;6.75;6.75;;;;;;;;4992066;28;45501;-70
2021/09/27 00:41:13;;;;;;;;;6.00;6.00;;;;;;;;4992553;28;45503;-70
2021/09/27 00:43:39;;;;;;;;;4.00;4.00;;;;;;;;4992539;28;45357;-70
2021/09/27 00:46:06;;;;;;;;;12.75;6.50;;;;;;;;4994241;28;45491;-71
2021/09/27 00:48:32;;;;;;;;;7.75;7.00;;;;;;;;4991988;28;45592;-70
2021/09/27 00:51:02;;;;;;;;;7.00;6.25;;;;;;;;4990899;28;45500;-69
2021/09/27 00:53:27;;;;;;;;;6.50;5.25;;;;;;;;4991652;28;45419;-70
2021/09/27 00:55:54;;;;;;;;;8.00;6.00;;;;;;;;4992227;28;46149;-70
2021/09/27 00:58:20;;;;;;;;;5.50;5.50;;;;;;;;4994083;28;45280;-70
2021/09/27 01:00:45;;;;;;;;;5.25;5.25;;;;;;;;4992440;28;45626;-69
2021/09/27 01:03:11;;;;;;;;;8.75;7.75;;;;;;;;4990289;28;45298;-69
2021/09/27 01:05:37;;;;;;;;;7.00;7.00;;;;;;;;4990401;28;45858;-70
2021/09/27 01:08:11;;;;;;;;;8.50;7.00;;;;;;;;4991774;28;45368;-70
2021/09/27 01:10:47;;;;;;;;;7.50;7.50;;;;;;;;4974560;28;45336;-70
2021/09/27 01:13:18;;;;;;;;;9.00;9.00;;;;;;;;4994064;28;45572;-70
2021/09/27 01:15:51;;;;;;;;;8.25;8.00;;;;;;;;4991681;28;45357;-70
2021/09/27 01:18:19;;;;;;;;;7.00;7.00;;;;;;;;4991924;28;45434;-70
2021/09/27 01:20:47;;;;;;;;;4.50;4.50;;;;;;;;4991920;28;45473;-70
2021/09/27 01:23:29;;;;;;;;;6.25;6.25;;;;;;;;4991535;28;45346;-70
2021/09/27 01:25:55;;;;;;;;;7.25;7.25;;;;;;;;4977203;28;47167;-70
2021/09/27 01:28:32;;;;;;;;;7.00;5.50;;;;;;;;4993134;28;45355;-70
2021/09/27 01:31:16;;;;;;;;;6.50;6.50;;;;;;;;4993995;28;45315;-70
2021/09/27 01:34:16;;;;;;;;;6.25;6.25;;;;;;;;4991916;28;45347;-71
2021/09/27 01:37:20;;;;;;;;;8.25;8.25;;;;;;;;4932165;28;45517;-70
2021/09/27 01:39:51;;;;;;;;;6.00;6.00;;;;;;;;4993763;28;45496;-70
2021/09/27 01:42:24;;;;;;;;;8.50;7.00;;;;;;;;4994110;28;45419;-70
2021/09/27 01:44:52;;;;;;;;;10.00;9.00;;;;;;;;4993743;28;45528;-70
2021/09/27 01:47:23;;;;;;;;;4.25;3.00;;;;;;;;4993758;28;47059;-70
2021/09/27 01:50:02;;;;;;;;;6.75;6.00;;;;;;;;4978177;28;45480;-70
2021/09/27 01:52:35;;;;;;;;;6.50;5.75;;;;;;;;4993584;28;45367;-69
2021/09/27 01:55:04;;;;;;;;;7.25;6.25;;;;;;;;4979251;28;45550;-69
2021/09/27 01:57:32;;;;;;;;;7.50;7.50;;;;;;;;4991768;28;45643;-70
2021/09/27 02:00:03;;;;;;;;;8.00;7.00;;;;;;;;4993796;28;45452;-69
2021/09/27 02:02:35;;;;;;;;;6.00;6.00;;;;;;;;4991033;28;45448;-69
2021/09/27 02:05:00;;;;;;;;;7.25;7.25;;;;;;;;4993428;28;45460;-69
2021/09/27 02:07:27;;;;;;;;;7.00;7.00;;;;;;;;4993226;28;46131;-69
2021/09/27 02:09:56;;;;;;;;;12.25;8.00;;;;;;;;4986600;28;45350;-70
2021/09/27 02:12:24;;;;;;;;;8.25;8.25;;;;;;;;4988612;28;45374;-70
2021/09/27 02:14:56;;;;;;;;;8.25;6.75;;;;;;;;4991414;28;45299;-69
2021/09/27 02:17:26;;;;;;;;;7.00;6.75;;;;;;;;4991023;28;46236;-69
2021/09/27 02:19:57;;;;;;;;;12.75;12.25;;;;;;;;4989557;28;45535;-69
2021/09/27 02:22:37;;;;;;;;;8.50;6.50;;;;;;;;4992751;28;45332;-69
2021/09/27 02:25:11;;;;;;;;;8.25;8.25;;;;;;;;4991735;28;45522;-69
2021/09/27 02:27:36;;;;;;;;;10.00;10.00;;;;;;;;4990829;28;45405;-69
2021/09/27 02:30:03;;;;;;;;;9.00;8.00;;;;;;;;4991210;28;45276;-69
2021/09/27 02:32:28;;;;;;;;;11.50;10.25;;;;;;;;4991429;28;45439;-69
2021/09/27 02:35:02;;;;;;;;;11.00;10.00;;;;;;;;4990970;28;45309;-69
2021/09/27 02:37:32;;;;;;;;;8.00;8.00;;;;;;;;4991812;28;46223;-70
2021/09/27 02:40:18;;;;;;;;;7.50;6.00;;;;;;;;4992960;28;45382;-70
2021/09/27 02:42:54;;;;;;;;;11.00;9.50;;;;;;;;4981901;28;45509;-70
2021/09/27 02:45:19;;;;;;;;;10.50;10.50;;;;;;;;4991106;28;45366;-70
2021/09/27 02:48:14;;;;;;;;;10.25;9.00;;;;;;;;4990547;28;45366;-69
2021/09/27 02:50:41;;;;;;;;;5.75;5.75;;;;;;;;4988337;28;45185;-70
2021/09/27 02:53:07;;;;;;;;;5.75;5.25;;;;;;;;4990783;28;45302;-71
2021/09/27 02:55:51;;;;;;;;;12.00;7.00;;;;;;;;4990836;28;46987;-70
2021/09/27 02:58:19;;;;;;;;;9.25;8.00;;;;;;;;4988355;28;47156;-70
2021/09/27 03:00:45;;;;;;;;;10.50;9.25;;;;;;;;4990711;28;45509;-70
2021/09/27 03:03:28;;;;;;;;;10.50;10.50;;;;;;;;4988701;28;45497;-71
2021/09/27 03:05:59;;;;;;;;;10.00;6.75;;;;;;;;4990562;28;45907;-70
2021/09/27 03:08:24;;;;;;;;;10.50;9.25;;;;;;;;4990319;28;46056;-71
2021/09/27 03:11:07;;;;;;;;;5.60;5.60;;;;;;;;4973154;28;45338;-70
2021/09/27 03:13:47;;;;;;;;;11.75;10.50;;;;;;;;4989410;28;45604;-70
2021/09/27 03:16:24;;;;;;;;;8.75;8.75;;;;;;;;4992193;28;45288;-71
2021/09/27 03:18:52;;;;;;;;;9.00;9.00;;;;;;;;4990669;28;46139;-70
2021/09/27 03:21:30;;;;;;;;;12.50;9.50;;;;;;;;4989829;28;45458;-70
2021/09/27 03:23:55;;;;;;;;;13.25;10.00;;;;;;;;4990099;28;45289;-70
2021/09/27 03:26:39;;;;;;;;;8.80;8.80;;;;;;;;4990342;28;45264;-70
2021/09/27 03:29:19;;;;;;;;;10.00;8.25;;;;;;;;4976791;28;46747;-70
2021/09/27 03:31:52;;;;;;;;;10.50;10.50;;;;;;;;4990036;28;45360;-68
2021/09/27 03:34:30;;;;;;;;;12.25;11.25;;;;;;;;4988444;28;45385;-70
2021/09/27 03:37:05;;;;;;;;;10.50;7.25;;;;;;;;4991345;28;45446;-69
2021/09/27 03:39:30;;;;;;;;;11.00;9.75;;;;;;;;4988183;28;47293;-70
2021/09/27 03:42:00;;;;;;;;;9.75;9.25;;;;;;;;4988549;28;45555;-69
2021/09/27 03:44:34;;;;;;;;;13.25;11.00;;;;;;;;4989919;28;45477;-69
2021/09/27 03:47:06;;;;;;;;;11.00;8.50;;;;;;;;4989622;28;45479;-69
2021/09/27 03:49:51;;;;;;;;;11.50;9.00;;;;;;;;4989772;28;46103;-70
2021/09/27 03:52:16;;;;;;;;;10.75;9.75;;;;;;;;4987753;28;45479;-71
2021/09/27 03:54:50;;;;;;;;;10.25;7.50;;;;;;;;4989942;28;45558;-70
2021/09/27 03:57:22;;;;;;;;;13.00;10.00;;;;;;;;4989409;28;45375;-69
2021/09/27 04:00:11;;;;;;;;;9.25;9.00;;;;;;;;4989348;28;45431;-70
2021/09/27 04:02:50;;;;;;;;;12.00;9.50;;;;;;;;4988880;28;45521;-70
2021/09/27 04:05:18;;;;;;;;;9.75;6.75;;;;;;;;4989798;28;45556;-70
2021/09/27 04:08:06;;;;;;;;;11.25;10.00;;;;;;;;4989731;28;45330;-70
2021/09/27 04:10:50;;;;;;;;;7.00;7.00;;;;;;;;4987670;28;46115;-70
2021/09/27 04:13:21;;;;;;;;;10.75;10.75;;;;;;;;4987228;28;45528;-69
2021/09/27 04:15:55;;;;;;;;;9.00;9.00;;;;;;;;4987948;28;45265;-69
2021/09/27 04:18:23;;;;;;;;;10.25;9.25;;;;;;;;4987285;28;45582;-69
2021/09/27 04:20:55;;;;;;;;;7.00;6.50;;;;;;;;4987305;28;46341;-70
2021/09/27 04:23:39;;;;;;;;;6.00;6.00;;;;;;;;4988651;28;45249;-70
2021/09/27 04:26:25;;;;;;;;;8.50;7.25;;;;;;;;4978126;28;45554;-69
2021/09/27 04:28:59;;;;;;;;;9.50;7.50;;;;;;;;4977359;28;45242;-68
2021/09/27 04:31:40;;;;;;;;;10.00;8.50;;;;;;;;4992747;28;46225;-70
2021/09/27 04:34:08;;;;;;;;;7.25;6.50;;;;;;;;4992492;28;45380;-70
2021/09/27 04:36:36;;;;;;;;;7.75;4.00;;;;;;;;4991495;28;45466;-69
2021/09/27 04:39:03;;;;;;;;;6.25;5.00;;;;;;;;4992016;28;45469;-71
2021/09/27 04:41:44;;;;;;;;;7.25;7.00;;;;;;;;4991779;28;45344;-70
2021/09/27 04:44:09;;;;;;;;;8.25;8.25;;;;;;;;4991833;28;45400;-70
2021/09/27 04:46:42;;;;;;;;;7.20;6.60;;;;;;;;4991765;28;45391;-74
2021/09/27 04:49:26;;;;;;;;;6.00;6.00;;;;;;;;4993916;28;45547;-70
2021/09/27 04:52:04;;;;;;;;;9.00;7.00;;;;;;;;4992718;28;46100;-69
2021/09/27 04:54:47;;;;;;;;;6.50;4.25;;;;;;;;4991636;28;45641;-70
2021/09/27 04:57:26;;;;;;;;;8.50;7.50;;;;;;;;4990053;28;45584;-70
2021/09/27 05:00:04;;;;;;;;;9.00;7.25;;;;;;;;4989374;28;45404;-69
2021/09/27 05:02:38;;;;;;;;;9.75;9.75;;;;;;;;4990909;28;45514;-70
2021/09/27 05:05:08;;;;;;;;;7.00;6.00;;;;;;;;4991380;28;45596;-69
2021/09/27 05:07:33;;;;;;;;;9.50;9.00;;;;;;;;4991004;28;45568;-69
2021/09/27 05:10:04;;;;;;;;;9.25;7.50;;;;;;;;4992898;28;45426;-69
2021/09/27 05:12:44;;;;;;;;;6.50;6.50;;;;;;;;4991194;28;45958;-71
2021/09/27 05:15:15;;;;;;;;;8.00;7.75;;;;;;;;4990502;28;45582;-71
2021/09/27 05:17:56;;;;;;;;;7.75;7.75;;;;;;;;4973113;28;45542;-70
2021/09/27 05:20:34;;;;;;;;;8.00;8.00;;;;;;;;4990742;27;45501;-70
2021/09/27 05:23:08;;;;;;;;;4.25;4.25;;;;;;;;4990843;28;45732;-71
2021/09/27 05:25:52;;;;;;;;;2.50;2.50;;;;;;;;4991070;28;45562;-71
2021/09/27 05:28:27;;;;;;;;;6.75;6.75;;;;;;;;4988756;28;45548;-70
2021/09/27 05:31:01;;;;;;;;;9.75;6.50;;;;;;;;4994719;27;45420;-71
2021/09/27 05:33:38;;;;;;;;;5.25;5.25;;;;;;;;5031517;27;46072;-71
2021/09/27 05:36:18;;;;;;;;;12.00;11.50;;;;;;;;5019659;27;45411;-70
2021/09/27 05:38:43;;;;;;;;;6.00;6.00;;;;;;;;5044271;27;45443;-70
2021/09/27 05:41:14;;;;;;;;;5.00;5.00;;;;;;;;5030373;27;45410;-70
2021/09/27 05:43:52;;;;;;;;;12.25;9.75;;;;;;;;5042692;27;47113;-71
2021/09/27 05:46:42;;;;;;;;;7.00;7.00;;;;;;;;5044146;27;45384;-70
2021/09/27 05:49:23;;;;;;;;;11.00;9.00;;;;;;;;5047445;27;45574;-71
2021/09/27 05:52:11;;;;;;;;;12.00;8.25;;;;;;;;5040136;27;45482;-72
2021/09/27 05:54:46;;;;;;;;;7.00;7.00;;;;;;;;5036728;27;47366;-70
2021/09/27 05:57:26;;;;;;;;;12.00;7.00;;;;;;;;5032838;27;45554;-70
2021/09/27 06:00:10;;;;;;;;;8.75;8.75;;;;;;;;5034559;27;45415;-70
2021/09/27 06:02:41;;;;;;;;;8.50;8.00;;;;;;;;5036360;27;45519;-71
2021/09/27 06:05:07;;;;;;;;;7.75;7.00;;;;;;;;5029829;27;46359;-75
2021/09/27 06:07:36;;;;;;;;;11.00;9.50;;;;;;;;4999336;27;45456;-74
2021/09/27 06:10:11;;;;;;;;;6.00;5.25;;;;;;;;5014600;27;45458;-74
2021/09/27 06:12:44;;;;;;;;;6.25;4.75;;;;;;;;4989094;28;45470;-74
2021/09/27 06:15:11;;;;;;;;;6.50;5.50;;;;;;;;4990718;28;46303;-75
2021/09/27 06:17:39;;;;;;;;;10.00;7.00;;;;;;;;4989036;28;45493;-75
2021/09/27 06:20:12;;;;;;;;;7.50;6.00;;;;;;;;4990339;28;45420;-74
2021/09/27 06:23:04;;;;;;;;;7.25;5.25;;;;;;;;4990088;28;45443;-82
2021/09/27 06:25:35;;;;;;;;;6.75;6.75;;;;;;;;4991983;28;46484;-75
2021/09/27 06:28:24;;;;;;;;;10.25;8.50;;;;;;;;4998288;28;45444;-74
2021/09/27 06:31:00;;;;;;;;;6.25;5.50;;;;;;;;4988590;27;45565;-74
2021/09/27 06:33:32;;;;;;;;;9.00;8.00;;;;;;;;4996839;28;47588;-74
2021/09/27 06:35:58;;;;;;;;;10.25;8.00;;;;;;;;4999386;27;46597;-75
2021/09/27 06:38:30;;;;;;;;;7.00;5.00;;;;;;;;5045540;27;45650;-73
2021/09/27 06:40:56;;;;;;;;;7.00;5.50;;;;;;;;4987366;27;45390;-73
2021/09/27 06:43:24;;;;;;;;;6.50;6.50;;;;;;;;4990061;27;45415;-74
2021/09/27 06:45:49;;;;;;;;;12.00;9.00;;;;;;;;4990242;28;47055;-74
2021/09/27 06:48:14;;;;;;;;;11.00;6.00;;;;;;;;4988127;27;45469;-74
2021/09/27 06:50:40;;;;;;;;;7.75;7.75;;;;;;;;4989138;27;45505;-73
2021/09/27 06:53:05;;;;;;;;;10.50;9.25;;;;;;;;4988075;28;45400;-74
2021/09/27 06:55:30;;;;;;;;;6.75;5.25;;;;;;;;4989282;27;45536;-73
2021/09/27 06:57:55;;;;;;;;;5.50;5.50;;;;;;;;4991184;27;45450;-74
2021/09/27 07:00:21;;;;;;;;;6.50;6.50;;;;;;;;4989588;27;45495;-73
2021/09/27 07:02:46;;;;;;;;;8.25;6.00;;;;;;;;4989210;28;45423;-74
2021/09/27 07:05:12;;;;;;;;;8.75;7.25;;;;;;;;4988521;27;46292;-73
2021/09/27 07:07:38;;;;;;;;;8.50;7.50;;;;;;;;4989749;27;46919;-74
2021/09/27 07:10:05;;;;;;;;;7.00;7.00;;;;;;;;4991000;27;45365;-74
2021/09/27 07:12:30;;;;;;;;;7.00;6.25;;;;;;;;4988654;28;45465;-73
2021/09/27 07:14:55;;;;;;;;;10.00;8.75;;;;;;;;4988145;27;46304;-73
2021/09/27 07:17:20;;;;;;;;;7.25;7.25;;;;;;;;4987426;27;45441;-73
2021/09/27 07:19:45;;;;;;;;;6.50;6.50;;;;;;;;4989325;28;45461;-75
2021/09/27 07:22:10;;;;;;;;;7.50;7.25;;;;;;;;4990285;27;45477;-73
2021/09/27 07:24:36;;;;;;;;;6.50;6.25;;;;;;;;4988417;28;45554;-73
2021/09/27 07:27:02;;;;;;;;;9.50;8.00;;;;;;;;4988442;28;45371;-74
2021/09/27 07:29:27;;;;;;;;;4.50;3.50;;;;;;;;4988281;27;45391;-74
2021/09/27 07:31:53;;;;;;;;;8.25;7.00;;;;;;;;4987991;28;45481;-74
2021/09/27 07:34:19;;;;;;;;;8.75;7.75;;;;;;;;4990220;28;46286;-73
2021/09/27 07:36:44;;;;;;;;;7.75;7.75;;;;;;;;4987287;27;45481;-70
2021/09/27 07:39:09;;;;;;;;;9.00;9.00;;;;;;;;4986750;27;45545;-71
2021/09/27 07:41:35;;;;;;;;;9.50;9.00;;;;;;;;4987507;28;46581;-71
2021/09/27 07:44:00;;;;;;;;;3.00;3.00;;;;;;;;4984872;27;45369;-73
2021/09/27 07:46:26;;;;;;;;;8.25;8.00;;;;;;;;4990072;28;45378;-73
2021/09/27 07:48:51;;;;;;;;;9.00;8.00;;;;;;;;4989617;28;45498;-74
2021/09/27 07:51:17;;;;;;;;;8.25;7.25;;;;;;;;4988362;28;45465;-73
2021/09/27 07:53:42;;;;;;;;;6.75;6.75;;;;;;;;4986545;27;47161;-74
2021/09/27 07:56:08;;;;;;;;;7.50;7.50;;;;;;;;5031096;27;45485;-74
2021/09/27 07:58:33;;;;;;;;;7.75;5.25;;;;;;;;5037125;27;45489;-73
2021/09/27 08:00:58;;;;;;;;;7.50;6.75;;;;;;;;5044857;27;45516;-73
2021/09/27 08:03:24;;;;;;;;;10.00;10.00;;;;;;;;5045817;27;47137;-72
2021/09/27 08:05:49;;;;;;;;;8.00;5.75;;;;;;;;5001443;27;45372;-74
2021/09/27 08:08:15;;;;;;;;;11.00;8.00;;;;;;;;4991282;28;47435;-74
2021/09/27 08:10:40;;;;;;;;;7.25;7.25;;;;;;;;4991315;28;45540;-75
2021/09/27 08:13:06;;;;;;;;;7.25;7.25;;;;;;;;4992702;28;46834;-75
2021/09/27 08:15:33;;;;;;;;;8.00;6.75;;;;;;;;4972472;28;45644;-75
2021/09/27 08:17:58;;;;;;;;;8.25;8.00;;;;;;;;4991704;28;45313;-73
2021/09/27 08:20:46;;;;;;;;;7.75;7.75;;;;;;;;4991451;28;45559;-74
2021/09/27 08:23:12;;;;;;;;;8.00;8.00;;;;;;;;4982901;28;45572;-74
2021/09/27 08:25:38;;;;;;;;;6.50;4.25;;;;;;;;4990826;28;45308;-73
2021/09/27 08:28:04;;;;;;;;;8.75;8.75;;;;;;;;4993604;28;45369;-73
2021/09/27 08:30:33;;;;;;;;;5.75;5.75;;;;;;;;5030758;27;45407;-75
2021/09/27 08:32:59;;;;;;;;;7.75;7.75;;;;;;;;5049001;27;45437;-73
2021/09/27 08:35:26;;;;;;;;;9.75;8.25;;;;;;;;5046097;27;45521;-73
2021/09/27 08:37:51;;;;;;;;;7.25;7.00;;;;;;;;5027860;27;45780;-75
2021/09/27 08:40:39;;;;;;;;;8.00;5.00;;;;;;;;5080541;27;45697;-74
2021/09/27 08:43:18;;;;;;;;;8.75;7.00;;;;;;;;5033715;28;46392;-74
2021/09/27 08:45:43;;;;;;;;;8.50;6.50;;;;;;;;5031508;28;45408;-74
2021/09/27 08:48:23;;;;;;;;;13.75;8.75;;;;;;;;5030306;28;46880;-74
2021/09/27 08:50:48;;;;;;;;;9.75;8.75;;;;;;;;5026449;28;45348;-74
2021/09/27 08:53:34;;;;;;;;;10.75;9.00;;;;;;;;5024278;28;45500;-74
2021/09/27 08:56:06;;;;;;;;;10.75;9.25;;;;;;;;5030283;28;45397;-75
2021/09/27 08:58:35;;;;;;;;;5.00;4.00;;;;;;;;5031975;28;45549;-74
2021/09/27 09:01:10;;;;;;;;;8.75;7.25;;;;;;;;5032103;28;45575;-74
2021/09/27 09:03:51;;;;;;;;;8.25;4.75;;;;;;;;5028609;28;46102;-74
2021/09/27 09:06:22;;;;;;;;;10.25;8.75;;;;;;;;5029117;28;45646;-73
2021/09/27 09:08:53;;;;;;;;;9.25;9.00;;;;;;;;5029202;28;45347;-74
2021/09/27 09:11:18;;;;;;;;;7.25;7.25;;;;;;;;5025881;28;45547;-74
2021/09/27 09:13:45;;;;;;;;;10.00;7.50;;;;;;;;5029816;28;47105;-74
2021/09/27 09:16:15;;;;;;;;;7.50;5.25;;;;;;;;5033209;28;45309;-74
2021/09/27 09:18:45;;;;;;;;;8.50;7.50;;;;;;;;5030576;28;45451;-74
2021/09/27 09:21:13;;;;;;;;;11.75;9.50;;;;;;;;4992735;28;45414;-75
2021/09/27 09:23:40;;;;;;;;;12.00;8.50;;;;;;;;4989452;28;45448;-74
2021/09/27 09:26:10;;;;;;;;;7.25;7.25;;;;;;;;4990420;28;45608;-75
2021/09/27 09:28:36;;;;;;;;;10.25;8.25;;;;;;;;4990723;28;45548;-75
2021/09/27 09:31:12;;;;;;;;;11.75;9.00;;;;;;;;4990870;28;45332;-74
2021/09/27 09:33:43;;;;;;;;;11.50;9.00;;;;;;;;4988082;28;47336;-74
2021/09/27 09:36:10;;;;;;;;;10.75;9.00;;;;;;;;4988695;28;45501;-74
2021/09/27 09:38:37;;;;;;;;;8.00;6.75;;;;;;;;4990456;27;45439;-75
2021/09/27 09:41:03;;;;;;;;;6.50;6.00;;;;;;;;4987317;28;45576;-74
2021/09/27 09:43:30;;;;;;;;;6.75;6.25;;;;;;;;4990921;28;45563;-75
2021/09/27 09:46:13;;;;;;;;;8.00;6.50;;;;;;;;4990888;28;45352;-74
2021/09/27 09:48:57;;;;;;;;;11.50;8.50;;;;;;;;4989287;28;45620;-73
2021/09/27 09:51:45;;;;;;;;;7.50;7.50;;;;;;;;4989312;27;45528;-74
2021/09/27 09:54:13;;;;;;;;;5.75;4.50;;;;;;;;4964026;28;46968;-74
2021/09/27 09:56:41;;;;;;;;;4.75;3.75;;;;;;;;4976917;28;45455;-75
2021/09/27 09:59:25;;;;;;;;;10.00;9.25;;;;;;;;4990269;28;45318;-75
2021/09/27 10:01:52;;;;;;;;;5.00;4.00;;;;;;;;4981323;28;45353;-75
2021/09/27 10:04:22;;;;;;;;;8.75;7.75;;;;;;;;4991587;28;46203;-75
2021/09/27 10:06:49;;;;;;;;;8.75;8.75;;;;;;;;4976421;28;45438;-74
2021/09/27 10:09:16;;;;;;;;;5.25;3.50;;;;;;;;4989223;28;45586;-74
2021/09/27 10:11:52;;;;;;;;;4.00;4.00;;;;;;;;4987776;28;45287;-75
2021/09/27 10:14:17;;;;;;;;;6.00;6.00;;;;;;;;4989695;28;45354;-74
2021/09/27 10:16:48;;;;;;;;;5.75;5.75;;;;;;;;4989770;28;45382;-74
2021/09/27 10:19:17;;;;;;;;;4.00;4.00;;;;;;;;4990263;28;45661;-73
2021/09/27 10:21:50;;;;;;;;;4.75;4.75;;;;;;;;4989392;27;45607;-74
2021/09/27 10:24:20;;;;;;;;;10.75;9.00;;;;;;;;4987590;28;46159;-74
2021/09/27 10:26:48;;;;;;;;;4.25;4.25;;;;;;;;4987061;28;47357;-74
2021/09/27 10:29:20;;;;;;;;;6.75;6.75;;;;;;;;4988406;28;45458;-73
2021/09/27 10:31:53;;;;;;;;;4.75;4.50;;;;;;;;4990081;28;45390;-71
2021/09/27 10:34:19;;;;;;;;;5.25;5.25;;;;;;;;4986421;28;47507;-73
2021/09/27 10:36:51;;;;;;;;;6.00;4.50;;;;;;;;4988385;28;45505;-73
2021/09/27 10:39:17;;;;;;;;;6.25;5.75;;;;;;;;4988847;27;45616;-73
2021/09/27 10:41:45;;;;;;;;;4.50;4.50;;;;;;;;4989662;28;47742;-74
2021/09/27 10:44:16;;;;;;;;;7.00;6.00;;;;;;;;4989843;28;46375;-72
2021/09/27 10:46:44;;;;;;;;;6.00;6.00;;;;;;;;4971055;28;45467;-73
2021/09/27 10:49:35;;;;;;;;;8.50;7.75;;;;;;;;4989994;28;45321;-73
2021/09/27 10:52:22;;;;;;;;;7.75;7.00;;;;;;;;4987367;28;45487;-73
2021/09/27 10:55:07;;;;;;;;;8.00;7.00;;;;;;;;4989797;28;47049;-72
2021/09/27 10:57:37;;;;;;;;;7.75;7.75;;;;;;;;4989623;28;45365;-73
2021/09/27 11:00:05;;;;;;;;;5.25;4.75;;;;;;;;4989336;28;45347;-73
2021/09/27 11:02:42;;;;;;;;;7.75;7.75;;;;;;;;4987395;27;45759;-73
2021/09/27 11:05:22;;;;;;;;;6.25;5.50;;;;;;;;4989500;28;47284;-73
2021/09/27 11:07:50;;;;;;;;;14.00;14.00;;;;;;;;4989251;28;45745;-73
2021/09/27 11:10:37;;;;;;;;;16.75;15.50;;;;;;;;4986519;28;45367;-73
2021/09/27 11:13:03;;;;;;;;;11.50;10.50;;;;;;;;4989547;28;46865;-73
2021/09/27 11:15:31;;;;;;;;;6.50;6.50;;;;;;;;4989765;28;45555;-73
2021/09/27 11:17:59;;;;;;;;;8.00;5.50;;;;;;;;4988485;28;45493;-73
2021/09/27 11:20:40;;;;;;;;;5.75;5.75;;;;;;;;4989252;28;45361;-74
2021/09/27 11:23:08;;;;;;;;;10.50;9.50;;;;;;;;4989054;28;45449;-73
2021/09/27 11:25:37;;;;;;;;;1.50;1.50;;;;;;;;4989085;28;47222;-73
2021/09/27 11:28:22;;;;;;;;;0.50;0.50;;;;;;;;4989357;28;45431;-71
2021/09/27 11:31:23;;;;;;;;;0.25;0.25;;;;;;;;4989207;28;45349;-72
2021/09/27 11:33:56;;;;;;;;;1.25;1.25;;;;;;;;4926766;28;45504;-72
2021/09/27 11:36:21;;;;;;;;;4.75;4.75;;;;;;;;4931946;28;45619;-72
2021/09/27 11:38:49;;;;;;;;;3.00;2.00;;;;;;;;4943777;28;45461;-70
2021/09/27 11:41:14;;;;;;;;;6.25;4.75;;;;;;;;4920036;28;45433;-71
2021/09/27 11:43:58;;;;;;;;;3.00;3.00;;;;;;;;4931130;28;45302;-72
2021/09/27 11:46:26;;;;;;;;;3.50;2.00;;;;;;;;4932618;28;45392;-71
2021/09/27 11:48:55;;;;;;;;;2.00;2.00;;;;;;;;4921083;28;45357;-71
2021/09/27 11:51:25;;;;;;;;;2.00;2.00;;;;;;;;4922056;28;45368;-72
2021/09/27 11:54:02;;;;;;;;;4.25;1.25;;;;;;;;4923284;28;45267;-71
2021/09/27 11:56:46;;;;;;;;;2.50;2.50;;;;;;;;4921537;28;46400;-72
2021/09/27 11:59:17;;;;;;;;;3.25;1.75;;;;;;;;4920359;28;45439;-72
2021/09/27 12:01:42;;;;;;;;;1.25;1.00;;;;;;;;4900768;28;45402;-73
2021/09/27 12:04:26;;;;;;;;;0.25;0.25;;;;;;;;4919932;28;45397;-73
2021/09/27 12:06:55;;;;;;;;;0.25;0.25;;;;;;;;4927660;28;45517;-73
2021/09/27 12:09:47;;;;;;;;;2.50;1.25;;;;;;;;4987002;28;45292;-74
2021/09/27 12:12:26;;;;;;;;;2.00;2.00;;;;;;;;4988621;28;45312;-73
2021/09/27 12:14:52;;;;;;;;;1.00;0.50;;;;;;;;4990491;27;45433;-72
2021/09/27 12:17:22;;;;;;;;;1.00;1.00;;;;;;;;4988480;28;45847;-72
2021/09/27 12:20:07;;;;;;;;;1.00;1.00;;;;;;;;4991553;28;45394;-71
2021/09/27 12:22:34;;;;;;;;;1.25;1.25;;;;;;;;4989422;28;45414;-73
2021/09/27 12:25:03;;;;;;;;;1.75;1.75;;;;;;;;4993658;28;45282;-72
2021/09/27 12:27:29;;;;;;;;;3.00;1.25;;;;;;;;4991761;28;46414;-72
2021/09/27 12:29:58;;;;;;;;;1.50;1.50;;;;;;;;4991422;28;45716;-72
2021/09/27 12:32:28;;;;;;;;;2.00;1.00;;;;;;;;4991618;28;45358;-72
2021/09/27 12:34:54;;;;;;;;;0.00;0.00;;;;;;;;4976616;28;45487;-72
2021/09/27 12:37:20;;;;;;;;;2.00;1.00;;;;;;;;4993405;28;46243;-74
2021/09/27 12:39:46;;;;;;;;;0.00;0.00;;;;;;;;4992332;28;45451;-72
2021/09/27 12:42:25;;;;;;;;;0.25;0.25;;;;;;;;4991349;28;45403;-71
2021/09/27 12:45:08;;;;;;;;;2.75;1.75;;;;;;;;4989424;28;45422;-72
2021/09/27 12:47:33;;;;;;;;;5.00;4.25;;;;;;;;4989576;28;45470;-73
2021/09/27 12:50:00;;;;;;;;;5.75;3.00;;;;;;;;4988988;28;45477;-71
2021/09/27 12:52:32;;;;;;;;;2.75;2.00;;;;;;;;4990955;28;45278;-72
2021/09/27 12:54:58;;;;;;;;;3.00;2.00;;;;;;;;4992600;28;45582;-72
2021/09/27 12:57:26;;;;;;;;;2.00;1.00;;;;;;;;4990273;27;46273;-70
2021/09/27 12:59:53;;;;;;;;;2.00;1.25;;;;;;;;4990550;28;45507;-72
2021/09/27 13:02:18;;;;;;;;;1.00;1.00;;;;;;;;4988141;28;45734;-69
2021/09/27 13:04:44;;;;;;;;;4.25;2.75;;;;;;;;4988798;28;45371;-72
2021/09/27 13:07:11;;;;;;;;;2.50;2.50;;;;;;;;4993019;28;46461;-73
2021/09/27 13:09:38;;;;;;;;;2.33;1.00;;;;;;;;4973206;28;46202;-73
2021/09/27 13:12:29;;;;;;;;;3.00;1.67;;;;;;;;4990923;28;45336;-71
2021/09/27 13:14:59;;;;;;;;;1.33;1.33;;;;;;;;4987495;28;45374;-72
2021/09/27 13:17:27;;;;;;;;;1.67;1.33;;;;;;;;4990631;28;46354;-72
2021/09/27 13:19:54;;;;;;;;;1.33;0.33;;;;;;;;4990925;28;45294;-72
2021/09/27 13:22:22;;;;;;;;;0.00;0.00;;;;;;;;4993335;28;45452;-71
2021/09/27 13:24:49;;;;;;;;;2.00;0.33;;;;;;;;4991482;28;45527;-71
2021/09/27 13:27:20;;;;;;;;;1.00;0.33;;;;;;;;4988477;28;45310;-71
2021/09/27 13:29:49;;;;;;;;;0.00;0.00;;;;;;;;4990453;28;45502;-73
2021/09/27 13:32:29;;;;;;;;;0.00;0.00;;;;;;;;4991133;28;45516;-71
2021/09/27 13:34:54;;;;;;;;;0.00;0.00;;;;;;;;4976118;28;45379;-71
2021/09/27 13:37:28;;;;;;;;;4.33;4.33;;;;;;;;4992616;28;47103;-71
2021/09/27 13:39:55;;;;;;;;;4.00;1.33;;;;;;;;4991806;28;45353;-71
2021/09/27 13:42:41;;;;;;;;;2.00;1.00;;;;;;;;4990120;28;45372;-71
2021/09/27 13:45:07;;;;;;;;;4.00;1.33;;;;;;;;4990288;28;45343;-72
2021/09/27 13:47:32;;;;;;;;;0.67;0.67;;;;;;;;4989770;28;45517;-71
2021/09/27 13:49:57;;;;;;;;;1.00;1.00;;;;;;;;4990236;28;45460;-70
2021/09/27 13:52:29;;;;;;;;;2.00;1.00;;;;;;;;4992056;28;45442;-70
2021/09/27 13:54:54;;;;;;;;;0.00;0.00;;;;;;;;4991720;28;45653;-71
2021/09/27 13:57:19;;;;;;;;;3.00;1.00;;;;;;;;4987909;28;46316;-72
2021/09/27 13:59:45;;;;;;;;;0.33;0.00;;;;;;;;4989897;28;45457;-71
2021/09/27 14:02:11;;;;;;;;;1.00;0.67;;;;;;;;4988823;28;45518;-71
2021/09/27 14:04:36;;;;;;;;;0.00;0.00;;;;;;;;4990353;28;45535;-72
2021/09/27 14:07:01;;;;;;;;;0.00;0.00;;;;;;;;4989731;28;46599;-72
2021/09/27 14:09:27;;;;;;;;;1.00;0.00;;;;;;;;4989621;28;45508;-73
2021/09/27 14:11:52;;;;;;;;;1.00;1.00;;;;;;;;4989582;28;45418;-72
2021/09/27 14:14:17;;;;;;;;;0.00;0.00;;;;;;;;4989996;28;45264;-73
2021/09/27 14:16:43;;;;;;;;;1.67;1.00;;;;;;;;4989576;28;45499;-72
2021/09/27 14:19:08;;;;;;;;;2.67;2.00;;;;;;;;4991847;28;45436;-72
2021/09/27 14:21:33;;;;;;;;;1.00;0.00;;;;;;;;4989992;28;45345;-72
2021/09/27 14:24:00;;;;;;;;;2.00;0.00;;;;;;;;4989829;28;45354;-73
2021/09/27 14:26:27;;;;;;;;;1.00;1.00;;;;;;;;4989588;28;46105;-73
2021/09/27 14:28:52;;;;;;;;;4.00;1.00;;;;;;;;4990139;28;45560;-73
2021/09/27 14:31:18;;;;;;;;;0.00;0.00;;;;;;;;4991993;28;45304;-74
2021/09/27 14:33:43;;;;;;;;;0.00;0.00;;;;;;;;4990204;28;45373;-73
2021/09/27 14:36:10;;;;;;;;;0.00;0.00;;;;;;;;4989877;28;45506;-72
2021/09/27 14:38:35;;;;;;;;;0.00;0.00;;;;;;;;4989847;28;45607;-74
2021/09/27 14:41:01;;;;;;;;;0.67;0.67;;;;;;;;4988139;28;45401;-72
2021/09/27 14:43:26;;;;;;;;;2.67;1.67;;;;;;;;4991724;28;45261;-73
2021/09/27 14:45:52;;;;;;;;;0.00;0.00;;;;;;;;4989368;28;46528;-73
2021/09/27 14:48:17;;;;;;;;;2.00;0.33;;;;;;;;4989415;28;45314;-73
2021/09/27 14:50:47;;;;;;;;;1.00;1.00;;;;;;;;4989003;28;45324;-73
2021/09/27 14:53:15;;;;;;;;;1.00;1.00;;;;;;;;4989436;28;45529;-72
2021/09/27 14:55:40;;;;;;;;;0.00;0.00;;;;;;;;4988657;28;46077;-73
2021/09/27 14:58:07;;;;;;;;;1.33;1.00;;;;;;;;4991395;28;45378;-73
2021/09/27 15:00:33;;;;;;;;;0.00;0.00;;;;;;;;4989127;28;45455;-74
2021/09/27 15:02:58;;;;;;;;;3.00;3.00;;;;;;;;4988432;28;45447;-73
2021/09/27 15:05:24;;;;;;;;;0.00;0.00;;;;;;;;4988632;28;45405;-72